Gulfport, Mississippi
Current Conditions -  °F | °C
As of 1:53 PM on Sunday 23 Nov 2014 (Local Time) from KGPT Reporting Station
Few Clouds Few Clouds  
Wind Chill: 68°   Ceiling: Unl
Heat Index: 68°   Visibility: 10mi
Dew Point: 60°   Wind: 10mph
Humidity: 76%   Direction: 210°SSW
Pressure: 29.65"   Gusts: 20mph
Location:  30.38°N, 89.09°W
Report Text: KGPT 231953Z 21009G17KT 10SM FEW033 20/16 A2965 RMK AO2 SLP041 T02000156
Loading
Personal Weather Stations






























Interactive Weather Map New forecast layout! Learn more

10-Day Weather Forecast

Advertisements
Track Severe Weather on mobile